sensor_id;sensor_type;location;lat;lon;timestamp;P1;durP1;ratioP1;P2;durP2;ratioP2
10452;SDS011;5274;51.992;8.518;2023-02-18T00:00:38;11.32;;;2.85;;
10452;SDS011;5274;51.992;8.518;2023-02-18T00:03:04;12.57;;;3.67;;
10452;SDS011;5274;51.992;8.518;2023-02-18T00:05:29;7.93;;;3.57;;
10452;SDS011;5274;51.992;8.518;2023-02-18T00:07:55;13.73;;;4.00;;
10452;SDS011;5274;51.992;8.518;2023-02-18T00:10:20;7.05;;;3.20;;
10452;SDS011;5274;51.992;8.518;2023-02-18T00:12:45;14.60;;;4.87;;
10452;SDS011;5274;51.992;8.518;2023-02-18T00:15:11;11.40;;;4.70;;
10452;SDS011;5274;51.992;8.518;2023-02-18T00:17:37;13.73;;;4.27;;
10452;SDS011;5274;51.992;8.518;2023-02-18T00:20:03;14.47;;;4.87;;
10452;SDS011;5274;51.992;8.518;2023-02-18T00:22:29;13.77;;;5.30;;
10452;SDS011;5274;51.992;8.518;2023-02-18T00:24:55;14.67;;;5.87;;
10452;SDS011;5274;51.992;8.518;2023-02-18T00:27:20;18.47;;;6.53;;
10452;SDS011;5274;51.992;8.518;2023-02-18T00:29:46;22.77;;;6.97;;
10452;SDS011;5274;51.992;8.518;2023-02-18T00:32:11;19.53;;;7.63;;
10452;SDS011;5274;51.992;8.518;2023-02-18T00:34:37;19.23;;;7.20;;
10452;SDS011;5274;51.992;8.518;2023-02-18T00:37:03;20.67;;;8.70;;
10452;SDS011;5274;51.992;8.518;2023-02-18T00:39:28;19.97;;;8.77;;
10452;SDS011;5274;51.992;8.518;2023-02-18T00:41:54;20.93;;;10.10;;
10452;SDS011;5274;51.992;8.518;2023-02-18T00:44:19;20.93;;;8.97;;
10452;SDS011;5274;51.992;8.518;2023-02-18T00:46:45;22.83;;;9.30;;
10452;SDS011;5274;51.992;8.518;2023-02-18T00:49:12;30.83;;;11.27;;
10452;SDS011;5274;51.992;8.518;2023-02-18T00:51:37;27.40;;;10.90;;
10452;SDS011;5274;51.992;8.518;2023-02-18T00:54:03;27.80;;;12.67;;
10452;SDS011;5274;51.992;8.518;2023-02-18T00:56:29;31.33;;;12.90;;
10452;SDS011;5274;51.992;8.518;2023-02-18T00:58:55;33.70;;;13.50;;
10452;SDS011;5274;51.992;8.518;2023-02-18T01:01:20;33.23;;;14.83;;
10452;SDS011;5274;51.992;8.518;2023-02-18T01:03:46;36.90;;;15.73;;
10452;SDS011;5274;51.992;8.518;2023-02-18T01:06:12;41.27;;;15.93;;
10452;SDS011;5274;51.992;8.518;2023-02-18T01:08:38;37.58;;;16.38;;
10452;SDS011;5274;51.992;8.518;2023-02-18T01:11:04;31.17;;;16.50;;
10452;SDS011;5274;51.992;8.518;2023-02-18T01:13:31;38.90;;;18.30;;
10452;SDS011;5274;51.992;8.518;2023-02-18T01:15:56;40.10;;;19.00;;
10452;SDS011;5274;51.992;8.518;2023-02-18T01:18:23;40.88;;;19.35;;
10452;SDS011;5274;51.992;8.518;2023-02-18T01:20:49;48.95;;;19.67;;
10452;SDS011;5274;51.992;8.518;2023-02-18T01:23:15;48.30;;;19.43;;
10452;SDS011;5274;51.992;8.518;2023-02-18T01:25:42;47.33;;;20.65;;
10452;SDS011;5274;51.992;8.518;2023-02-18T01:28:07;50.15;;;20.67;;
10452;SDS011;5274;51.992;8.518;2023-02-18T01:30:35;46.55;;;20.58;;
10452;SDS011;5274;51.992;8.518;2023-02-18T01:33:00;44.20;;;21.13;;
10452;SDS011;5274;51.992;8.518;2023-02-18T01:35:26;51.33;;;21.40;;
10452;SDS011;5274;51.992;8.518;2023-02-18T01:37:51;53.88;;;21.95;;
10452;SDS011;5274;51.992;8.518;2023-02-18T01:40:19;49.80;;;21.38;;
10452;SDS011;5274;51.992;8.518;2023-02-18T01:42:46;53.05;;;21.83;;
10452;SDS011;5274;51.992;8.518;2023-02-18T01:45:36;53.35;;;23.25;;
10452;SDS011;5274;51.992;8.518;2023-02-18T01:50:41;57.00;;;24.10;;
10452;SDS011;5274;51.992;8.518;2023-02-18T01:53:10;54.78;;;24.15;;
10452;SDS011;5274;51.992;8.518;2023-02-18T01:55:40;60.83;;;24.88;;
10452;SDS011;5274;51.992;8.518;2023-02-18T01:58:06;63.50;;;26.65;;
10452;SDS011;5274;51.992;8.518;2023-02-18T02:00:32;58.38;;;24.73;;
10452;SDS011;5274;51.992;8.518;2023-02-18T02:02:58;59.85;;;25.63;;
10452;SDS011;5274;51.992;8.518;2023-02-18T02:05:23;58.78;;;25.05;;
10452;SDS011;5274;51.992;8.518;2023-02-18T02:07:50;59.00;;;24.60;;
10452;SDS011;5274;51.992;8.518;2023-02-18T02:10:16;61.33;;;26.08;;
10452;SDS011;5274;51.992;8.518;2023-02-18T02:15:33;61.83;;;24.85;;
10452;SDS011;5274;51.992;8.518;2023-02-18T02:18:12;57.30;;;26.48;;
10452;SDS011;5274;51.992;8.518;2023-02-18T02:26:39;72.28;;;28.15;;
10452;SDS011;5274;51.992;8.518;2023-02-18T02:29:36;68.47;;;27.73;;
10452;SDS011;5274;51.992;8.518;2023-02-18T02:37:34;73.30;;;29.77;;
10452;SDS011;5274;51.992;8.518;2023-02-18T02:40:23;65.65;;;27.58;;
10452;SDS011;5274;51.992;8.518;2023-02-18T02:43:12;66.20;;;27.75;;
10452;SDS011;5274;51.992;8.518;2023-02-18T02:48:37;78.18;;;30.27;;
10452;SDS011;5274;51.992;8.518;2023-02-18T02:51:25;69.97;;;28.92;;
10452;SDS011;5274;51.992;8.518;2023-02-18T02:54:07;71.78;;;29.40;;
10452;SDS011;5274;51.992;8.518;2023-02-18T02:56:41;78.95;;;29.38;;
10452;SDS011;5274;51.992;8.518;2023-02-18T02:59:07;70.47;;;29.70;;
10452;SDS011;5274;51.992;8.518;2023-02-18T03:04:27;72.00;;;29.27;;
10452;SDS011;5274;51.992;8.518;2023-02-18T03:07:19;70.30;;;29.25;;
10452;SDS011;5274;51.992;8.518;2023-02-18T03:10:16;74.82;;;30.98;;
10452;SDS011;5274;51.992;8.518;2023-02-18T03:15:38;83.47;;;32.97;;
10452;SDS011;5274;51.992;8.518;2023-02-18T03:18:14;85.10;;;32.63;;
10452;SDS011;5274;51.992;8.518;2023-02-18T03:20:52;75.28;;;31.42;;
10452;SDS011;5274;51.992;8.518;2023-02-18T03:23:23;83.85;;;29.77;;
10452;SDS011;5274;51.992;8.518;2023-02-18T03:25:54;70.88;;;29.08;;
10452;SDS011;5274;51.992;8.518;2023-02-18T03:28:22;74.47;;;29.95;;
10452;SDS011;5274;51.992;8.518;2023-02-18T03:30:54;77.45;;;29.90;;
10452;SDS011;5274;51.992;8.518;2023-02-18T03:33:29;76.72;;;29.48;;
10452;SDS011;5274;51.992;8.518;2023-02-18T03:36:03;67.18;;;27.25;;
10452;SDS011;5274;51.992;8.518;2023-02-18T03:38:37;72.68;;;28.33;;
10452;SDS011;5274;51.992;8.518;2023-02-18T03:41:07;68.60;;;27.27;;
10452;SDS011;5274;51.992;8.518;2023-02-18T03:43:33;67.40;;;28.27;;
10452;SDS011;5274;51.992;8.518;2023-02-18T03:45:58;71.38;;;26.40;;
10452;SDS011;5274;51.992;8.518;2023-02-18T03:48:24;67.07;;;25.42;;
10452;SDS011;5274;51.992;8.518;2023-02-18T03:50:50;71.03;;;24.20;;
10452;SDS011;5274;51.992;8.518;2023-02-18T03:53:15;61.50;;;24.10;;
10452;SDS011;5274;51.992;8.518;2023-02-18T03:55:41;73.63;;;23.02;;
10452;SDS011;5274;51.992;8.518;2023-02-18T03:58:06;76.13;;;23.83;;
10452;SDS011;5274;51.992;8.518;2023-02-18T04:00:32;111.65;;;27.85;;
10452;SDS011;5274;51.992;8.518;2023-02-18T04:02:57;81.85;;;25.55;;
10452;SDS011;5274;51.992;8.518;2023-02-18T04:05:23;90.20;;;25.45;;
10452;SDS011;5274;51.992;8.518;2023-02-18T04:07:48;100.18;;;27.52;;
10452;SDS011;5274;51.992;8.518;2023-02-18T04:10:14;109.90;;;27.02;;
10452;SDS011;5274;51.992;8.518;2023-02-18T04:12:39;86.90;;;24.52;;
10452;SDS011;5274;51.992;8.518;2023-02-18T04:15:05;97.50;;;26.52;;
10452;SDS011;5274;51.992;8.518;2023-02-18T04:17:31;73.78;;;23.00;;
10452;SDS011;5274;51.992;8.518;2023-02-18T04:19:58;74.53;;;22.30;;
10452;SDS011;5274;51.992;8.518;2023-02-18T04:22:23;72.13;;;22.98;;
10452;SDS011;5274;51.992;8.518;2023-02-18T04:24:49;59.97;;;19.77;;
10452;SDS011;5274;51.992;8.518;2023-02-18T04:27:14;81.13;;;23.30;;
10452;SDS011;5274;51.992;8.518;2023-02-18T04:29:40;86.72;;;25.17;;
10452;SDS011;5274;51.992;8.518;2023-02-18T04:32:05;108.97;;;28.25;;
10452;SDS011;5274;51.992;8.518;2023-02-18T04:34:31;96.78;;;26.45;;
10452;SDS011;5274;51.992;8.518;2023-02-18T04:36:56;161.45;;;32.70;;
10452;SDS011;5274;51.992;8.518;2023-02-18T04:39:22;127.22;;;31.63;;
10452;SDS011;5274;51.992;8.518;2023-02-18T04:41:47;121.63;;;33.75;;
10452;SDS011;5274;51.992;8.518;2023-02-18T04:44:13;109.93;;;33.30;;
10452;SDS011;5274;51.992;8.518;2023-02-18T04:46:38;153.43;;;34.85;;
10452;SDS011;5274;51.992;8.518;2023-02-18T04:49:04;139.55;;;37.08;;
10452;SDS011;5274;51.992;8.518;2023-02-18T04:51:29;143.45;;;38.75;;
10452;SDS011;5274;51.992;8.518;2023-02-18T04:53:55;126.95;;;37.13;;
10452;SDS011;5274;51.992;8.518;2023-02-18T04:56:20;123.00;;;34.17;;
10452;SDS011;5274;51.992;8.518;2023-02-18T04:58:46;129.63;;;37.35;;
10452;SDS011;5274;51.992;8.518;2023-02-18T05:01:11;161.55;;;39.33;;
10452;SDS011;5274;51.992;8.518;2023-02-18T05:03:37;125.13;;;35.45;;
10452;SDS011;5274;51.992;8.518;2023-02-18T05:06:03;120.32;;;36.53;;
10452;SDS011;5274;51.992;8.518;2023-02-18T05:08:28;116.97;;;34.08;;
10452;SDS011;5274;51.992;8.518;2023-02-18T05:10:54;136.82;;;38.25;;
10452;SDS011;5274;51.992;8.518;2023-02-18T05:13:19;114.13;;;33.97;;
10452;SDS011;5274;51.992;8.518;2023-02-18T05:15:46;115.60;;;34.33;;
10452;SDS011;5274;51.992;8.518;2023-02-18T05:18:12;116.68;;;33.10;;
10452;SDS011;5274;51.992;8.518;2023-02-18T05:20:38;118.43;;;33.05;;
10452;SDS011;5274;51.992;8.518;2023-02-18T05:23:03;105.38;;;31.75;;
10452;SDS011;5274;51.992;8.518;2023-02-18T05:25:29;103.45;;;30.83;;
10452;SDS011;5274;51.992;8.518;2023-02-18T05:27:54;121.05;;;30.60;;
10452;SDS011;5274;51.992;8.518;2023-02-18T05:30:20;92.38;;;29.55;;
10452;SDS011;5274;51.992;8.518;2023-02-18T05:32:45;125.20;;;32.22;;
10452;SDS011;5274;51.992;8.518;2023-02-18T05:35:11;108.72;;;31.75;;
10452;SDS011;5274;51.992;8.518;2023-02-18T05:37:37;108.75;;;31.65;;
10452;SDS011;5274;51.992;8.518;2023-02-18T05:40:03;110.15;;;32.35;;
10452;SDS011;5274;51.992;8.518;2023-02-18T05:42:29;108.28;;;32.90;;
10452;SDS011;5274;51.992;8.518;2023-02-18T05:44:54;99.45;;;30.13;;
10452;SDS011;5274;51.992;8.518;2023-02-18T05:47:20;102.60;;;32.03;;
10452;SDS011;5274;51.992;8.518;2023-02-18T05:49:45;114.20;;;32.25;;
10452;SDS011;5274;51.992;8.518;2023-02-18T05:52:11;93.60;;;28.42;;
10452;SDS011;5274;51.992;8.518;2023-02-18T05:54:37;87.20;;;29.42;;
10452;SDS011;5274;51.992;8.518;2023-02-18T05:57:03;99.03;;;30.27;;
10452;SDS011;5274;51.992;8.518;2023-02-18T05:59:28;94.88;;;28.13;;
10452;SDS011;5274;51.992;8.518;2023-02-18T06:01:54;91.40;;;28.98;;
10452;SDS011;5274;51.992;8.518;2023-02-18T06:04:19;90.30;;;28.25;;
10452;SDS011;5274;51.992;8.518;2023-02-18T06:06:45;105.85;;;28.83;;
10452;SDS011;5274;51.992;8.518;2023-02-18T06:09:11;90.10;;;27.80;;
10452;SDS011;5274;51.992;8.518;2023-02-18T06:11:37;96.30;;;28.23;;
10452;SDS011;5274;51.992;8.518;2023-02-18T06:14:02;92.57;;;28.15;;
10452;SDS011;5274;51.992;8.518;2023-02-18T06:16:28;101.03;;;27.95;;
10452;SDS011;5274;51.992;8.518;2023-02-18T06:18:54;85.93;;;26.80;;
10452;SDS011;5274;51.992;8.518;2023-02-18T06:21:20;94.97;;;26.90;;
10452;SDS011;5274;51.992;8.518;2023-02-18T06:23:45;88.38;;;26.88;;
10452;SDS011;5274;51.992;8.518;2023-02-18T06:26:11;83.22;;;23.60;;
10452;SDS011;5274;51.992;8.518;2023-02-18T06:28:36;70.45;;;22.13;;
10452;SDS011;5274;51.992;8.518;2023-02-18T06:31:02;68.00;;;20.17;;
10452;SDS011;5274;51.992;8.518;2023-02-18T06:33:27;72.78;;;20.98;;
10452;SDS011;5274;51.992;8.518;2023-02-18T06:35:57;83.22;;;20.25;;
10452;SDS011;5274;51.992;8.518;2023-02-18T06:38:24;77.45;;;20.33;;
10452;SDS011;5274;51.992;8.518;2023-02-18T06:40:51;68.95;;;18.00;;
10452;SDS011;5274;51.992;8.518;2023-02-18T06:43:17;75.57;;;17.85;;
10452;SDS011;5274;51.992;8.518;2023-02-18T06:45:43;55.58;;;16.58;;
10452;SDS011;5274;51.992;8.518;2023-02-18T06:48:08;50.55;;;14.18;;
10452;SDS011;5274;51.992;8.518;2023-02-18T06:50:34;60.78;;;13.90;;
10452;SDS011;5274;51.992;8.518;2023-02-18T06:52:59;54.22;;;15.10;;
10452;SDS011;5274;51.992;8.518;2023-02-18T06:55:25;39.00;;;13.23;;
10452;SDS011;5274;51.992;8.518;2023-02-18T06:57:50;37.10;;;11.85;;
10452;SDS011;5274;51.992;8.518;2023-02-18T07:00:16;40.75;;;12.48;;
10452;SDS011;5274;51.992;8.518;2023-02-18T07:02:41;48.97;;;13.55;;
10452;SDS011;5274;51.992;8.518;2023-02-18T07:05:07;42.22;;;12.57;;
10452;SDS011;5274;51.992;8.518;2023-02-18T07:07:33;29.17;;;10.40;;
10452;SDS011;5274;51.992;8.518;2023-02-18T07:09:58;37.00;;;11.75;;
10452;SDS011;5274;51.992;8.518;2023-02-18T07:12:24;30.45;;;10.48;;
10452;SDS011;5274;51.992;8.518;2023-02-18T07:14:49;35.45;;;11.93;;
10452;SDS011;5274;51.992;8.518;2023-02-18T07:17:15;27.67;;;11.25;;
10452;SDS011;5274;51.992;8.518;2023-02-18T07:19:40;26.85;;;11.30;;
10452;SDS011;5274;51.992;8.518;2023-02-18T07:22:06;33.95;;;12.57;;
10452;SDS011;5274;51.992;8.518;2023-02-18T07:24:31;29.02;;;11.32;;
10452;SDS011;5274;51.992;8.518;2023-02-18T07:26:56;27.85;;;11.18;;
10452;SDS011;5274;51.992;8.518;2023-02-18T07:29:22;27.77;;;12.23;;
10452;SDS011;5274;51.992;8.518;2023-02-18T07:31:47;31.30;;;12.57;;
10452;SDS011;5274;51.992;8.518;2023-02-18T07:34:13;29.70;;;12.40;;
10452;SDS011;5274;51.992;8.518;2023-02-18T07:36:38;24.58;;;12.32;;
10452;SDS011;5274;51.992;8.518;2023-02-18T07:39:04;30.52;;;12.35;;
10452;SDS011;5274;51.992;8.518;2023-02-18T07:41:30;31.33;;;12.00;;
10452;SDS011;5274;51.992;8.518;2023-02-18T07:43:55;26.65;;;11.10;;
10452;SDS011;5274;51.992;8.518;2023-02-18T07:46:21;25.55;;;11.63;;
10452;SDS011;5274;51.992;8.518;2023-02-18T07:48:46;26.05;;;10.20;;
10452;SDS011;5274;51.992;8.518;2023-02-18T07:51:12;26.73;;;10.35;;
10452;SDS011;5274;51.992;8.518;2023-02-18T07:53:37;22.92;;;10.60;;
10452;SDS011;5274;51.992;8.518;2023-02-18T07:56:03;26.10;;;11.00;;
10452;SDS011;5274;51.992;8.518;2023-02-18T07:58:30;26.77;;;10.95;;
10452;SDS011;5274;51.992;8.518;2023-02-18T08:00:57;22.80;;;10.48;;
10452;SDS011;5274;51.992;8.518;2023-02-18T08:03:24;24.60;;;11.52;;
10452;SDS011;5274;51.992;8.518;2023-02-18T08:05:54;26.60;;;11.20;;
10452;SDS011;5274;51.992;8.518;2023-02-18T08:08:22;22.65;;;10.70;;
10452;SDS011;5274;51.992;8.518;2023-02-18T08:10:49;28.92;;;11.55;;
10452;SDS011;5274;51.992;8.518;2023-02-18T08:13:17;24.05;;;10.55;;
10452;SDS011;5274;51.992;8.518;2023-02-18T08:15:43;30.08;;;12.60;;
10452;SDS011;5274;51.992;8.518;2023-02-18T08:18:13;26.58;;;12.05;;
10452;SDS011;5274;51.992;8.518;2023-02-18T08:20:41;29.35;;;11.98;;
10452;SDS011;5274;51.992;8.518;2023-02-18T08:23:07;22.67;;;11.63;;
10452;SDS011;5274;51.992;8.518;2023-02-18T08:25:34;26.42;;;12.25;;
10452;SDS011;5274;51.992;8.518;2023-02-18T08:27:59;26.73;;;12.30;;
10452;SDS011;5274;51.992;8.518;2023-02-18T08:30:25;29.60;;;12.63;;
10452;SDS011;5274;51.992;8.518;2023-02-18T08:32:51;20.58;;;11.90;;
10452;SDS011;5274;51.992;8.518;2023-02-18T08:35:17;29.02;;;12.15;;
10452;SDS011;5274;51.992;8.518;2023-02-18T08:37:42;25.88;;;11.82;;
10452;SDS011;5274;51.992;8.518;2023-02-18T08:40:08;26.83;;;11.43;;
10452;SDS011;5274;51.992;8.518;2023-02-18T08:42:34;22.33;;;10.65;;
10452;SDS011;5274;51.992;8.518;2023-02-18T08:45:00;19.30;;;11.05;;
10452;SDS011;5274;51.992;8.518;2023-02-18T08:47:25;19.92;;;10.48;;
10452;SDS011;5274;51.992;8.518;2023-02-18T08:49:51;19.10;;;10.55;;
10452;SDS011;5274;51.992;8.518;2023-02-18T08:52:18;16.05;;;9.55;;
10452;SDS011;5274;51.992;8.518;2023-02-18T08:54:43;16.98;;;9.30;;
10452;SDS011;5274;51.992;8.518;2023-02-18T08:57:09;19.92;;;9.95;;
10452;SDS011;5274;51.992;8.518;2023-02-18T08:59:34;17.13;;;9.50;;
10452;SDS011;5274;51.992;8.518;2023-02-18T09:02:00;15.43;;;8.52;;
10452;SDS011;5274;51.992;8.518;2023-02-18T09:04:25;20.83;;;9.10;;
10452;SDS011;5274;51.992;8.518;2023-02-18T09:06:51;16.13;;;9.07;;
10452;SDS011;5274;51.992;8.518;2023-02-18T09:09:16;18.23;;;9.45;;
10452;SDS011;5274;51.992;8.518;2023-02-18T09:11:42;18.15;;;9.90;;
10452;SDS011;5274;51.992;8.518;2023-02-18T09:14:08;19.10;;;10.13;;
10452;SDS011;5274;51.992;8.518;2023-02-18T09:16:33;23.23;;;10.70;;
10452;SDS011;5274;51.992;8.518;2023-02-18T09:18:59;21.98;;;10.00;;
10452;SDS011;5274;51.992;8.518;2023-02-18T09:21:25;21.15;;;10.82;;
10452;SDS011;5274;51.992;8.518;2023-02-18T09:23:51;18.85;;;10.38;;
10452;SDS011;5274;51.992;8.518;2023-02-18T09:26:17;21.08;;;10.23;;
10452;SDS011;5274;51.992;8.518;2023-02-18T09:28:46;21.50;;;10.75;;
10452;SDS011;5274;51.992;8.518;2023-02-18T09:31:14;19.25;;;10.50;;
10452;SDS011;5274;51.992;8.518;2023-02-18T09:33:42;20.27;;;10.40;;
10452;SDS011;5274;51.992;8.518;2023-02-18T09:36:09;20.23;;;9.68;;
10452;SDS011;5274;51.992;8.518;2023-02-18T09:38:35;21.67;;;10.50;;
10452;SDS011;5274;51.992;8.518;2023-02-18T09:41:01;18.20;;;10.88;;
10452;SDS011;5274;51.992;8.518;2023-02-18T09:46:03;21.45;;;10.65;;
10452;SDS011;5274;51.992;8.518;2023-02-18T09:48:35;18.90;;;10.63;;
10452;SDS011;5274;51.992;8.518;2023-02-18T09:51:01;19.77;;;10.75;;
10452;SDS011;5274;51.992;8.518;2023-02-18T09:53:27;23.88;;;11.98;;
10452;SDS011;5274;51.992;8.518;2023-02-18T09:55:53;25.63;;;13.60;;
10452;SDS011;5274;51.992;8.518;2023-02-18T09:58:24;29.05;;;14.85;;
10452;SDS011;5274;51.992;8.518;2023-02-18T10:00:56;29.35;;;15.82;;
10452;SDS011;5274;51.992;8.518;2023-02-18T10:03:38;33.42;;;17.10;;
10452;SDS011;5274;51.992;8.518;2023-02-18T10:06:05;33.28;;;17.80;;
10452;SDS011;5274;51.992;8.518;2023-02-18T10:08:47;35.28;;;17.50;;
10452;SDS011;5274;51.992;8.518;2023-02-18T10:11:16;36.00;;;17.92;;
10452;SDS011;5274;51.992;8.518;2023-02-18T10:13:47;43.90;;;18.27;;
10452;SDS011;5274;51.992;8.518;2023-02-18T10:16:16;31.48;;;15.73;;
10452;SDS011;5274;51.992;8.518;2023-02-18T10:18:46;30.33;;;15.38;;
10452;SDS011;5274;51.992;8.518;2023-02-18T10:21:15;30.70;;;14.02;;
10452;SDS011;5274;51.992;8.518;2023-02-18T10:24:03;25.42;;;11.50;;
10452;SDS011;5274;51.992;8.518;2023-02-18T10:26:33;22.63;;;11.38;;
10452;SDS011;5274;51.992;8.518;2023-02-18T10:29:01;25.98;;;11.43;;
10452;SDS011;5274;51.992;8.518;2023-02-18T10:31:31;22.90;;;10.18;;
10452;SDS011;5274;51.992;8.518;2023-02-18T10:34:23;20.77;;;9.63;;
10452;SDS011;5274;51.992;8.518;2023-02-18T10:45:55;19.92;;;9.45;;
10452;SDS011;5274;51.992;8.518;2023-02-18T10:48:33;0.95;;;0.95;;
10452;SDS011;5274;51.992;8.518;2023-02-18T10:51:17;0.30;;;0.30;;
10452;SDS011;5274;51.992;8.518;2023-02-18T10:53:45;0.63;;;0.63;;
10452;SDS011;5274;51.992;8.518;2023-02-18T10:59:31;0.28;;;0.28;;
10452;SDS011;5274;51.992;8.518;2023-02-18T11:01:58;0.40;;;0.40;;
10452;SDS011;5274;51.992;8.518;2023-02-18T11:04:25;0.40;;;0.40;;
10452;SDS011;5274;51.992;8.518;2023-02-18T11:07:03;0.30;;;0.30;;
10452;SDS011;5274;51.992;8.518;2023-02-18T11:09:39;0.20;;;0.20;;
10452;SDS011;5274;51.992;8.518;2023-02-18T11:12:13;0.20;;;0.20;;
10452;SDS011;5274;51.992;8.518;2023-02-18T11:14:42;0.25;;;0.25;;
10452;SDS011;5274;51.992;8.518;2023-02-18T11:17:26;0.50;;;0.50;;
10452;SDS011;5274;51.992;8.518;2023-02-18T11:19:58;0.30;;;0.30;;
10452;SDS011;5274;51.992;8.518;2023-02-18T11:22:33;0.30;;;0.30;;
10452;SDS011;5274;51.992;8.518;2023-02-18T11:25:13;0.30;;;0.30;;
10452;SDS011;5274;51.992;8.518;2023-02-18T11:27:44;0.20;;;0.20;;
10452;SDS011;5274;51.992;8.518;2023-02-18T11:30:18;0.30;;;0.30;;
10452;SDS011;5274;51.992;8.518;2023-02-18T11:33:06;0.40;;;0.40;;
10452;SDS011;5274;51.992;8.518;2023-02-18T11:35:47;0.30;;;0.30;;
10452;SDS011;5274;51.992;8.518;2023-02-18T11:38:36;0.30;;;0.30;;
10452;SDS011;5274;51.992;8.518;2023-02-18T11:41:08;0.30;;;0.30;;
10452;SDS011;5274;51.992;8.518;2023-02-18T11:43:40;0.20;;;0.20;;
10452;SDS011;5274;51.992;8.518;2023-02-18T11:46:10;0.30;;;0.30;;
10452;SDS011;5274;51.992;8.518;2023-02-18T11:48:38;0.30;;;0.30;;
10452;SDS011;5274;51.992;8.518;2023-02-18T11:51:05;0.30;;;0.30;;
10452;SDS011;5274;51.992;8.518;2023-02-18T11:53:37;0.30;;;0.30;;
10452;SDS011;5274;51.992;8.518;2023-02-18T11:56:04;0.30;;;0.30;;
10452;SDS011;5274;51.992;8.518;2023-02-18T11:58:39;0.30;;;0.30;;
10452;SDS011;5274;51.992;8.518;2023-02-18T12:01:12;0.30;;;0.30;;
10452;SDS011;5274;51.992;8.518;2023-02-18T12:03:45;0.20;;;0.20;;
10452;SDS011;5274;51.992;8.518;2023-02-18T12:06:19;0.30;;;0.30;;
10452;SDS011;5274;51.992;8.518;2023-02-18T12:09:08;0.30;;;0.30;;
10452;SDS011;5274;51.992;8.518;2023-02-18T12:11:45;0.20;;;0.20;;
10452;SDS011;5274;51.992;8.518;2023-02-18T12:14:18;0.30;;;0.30;;
10452;SDS011;5274;51.992;8.518;2023-02-18T12:16:51;0.30;;;0.30;;
10452;SDS011;5274;51.992;8.518;2023-02-18T12:28:16;0.30;;;0.30;;
10452;SDS011;5274;51.992;8.518;2023-02-18T12:33:42;0.30;;;0.30;;
10452;SDS011;5274;51.992;8.518;2023-02-18T12:39:47;0.25;;;0.25;;
10452;SDS011;5274;51.992;8.518;2023-02-18T12:42:43;0.30;;;0.30;;
10452;SDS011;5274;51.992;8.518;2023-02-18T12:48:02;0.20;;;0.20;;
10452;SDS011;5274;51.992;8.518;2023-02-18T12:50:50;0.30;;;0.30;;
10452;SDS011;5274;51.992;8.518;2023-02-18T12:53:39;0.20;;;0.20;;
10452;SDS011;5274;51.992;8.518;2023-02-18T13:04:45;0.20;;;0.20;;
10452;SDS011;5274;51.992;8.518;2023-02-18T13:07:25;0.40;;;0.40;;
10452;SDS011;5274;51.992;8.518;2023-02-18T13:15:59;0.30;;;0.30;;
10452;SDS011;5274;51.992;8.518;2023-02-18T13:18:50;0.20;;;0.20;;
10452;SDS011;5274;51.992;8.518;2023-02-18T13:21:26;0.20;;;0.20;;
10452;SDS011;5274;51.992;8.518;2023-02-18T13:23:58;0.30;;;0.30;;
10452;SDS011;5274;51.992;8.518;2023-02-18T13:26:27;0.30;;;0.30;;
10452;SDS011;5274;51.992;8.518;2023-02-18T13:31:45;0.30;;;0.30;;
10452;SDS011;5274;51.992;8.518;2023-02-18T13:37:18;0.20;;;0.20;;
10452;SDS011;5274;51.992;8.518;2023-02-18T13:39:57;0.30;;;0.30;;
10452;SDS011;5274;51.992;8.518;2023-02-18T13:47:34;0.30;;;0.30;;
10452;SDS011;5274;51.992;8.518;2023-02-18T13:55:28;0.30;;;0.30;;
10452;SDS011;5274;51.992;8.518;2023-02-18T13:58:04;0.20;;;0.20;;
10452;SDS011;5274;51.992;8.518;2023-02-18T14:00:40;0.20;;;0.20;;
10452;SDS011;5274;51.992;8.518;2023-02-18T14:05:54;0.40;;;0.40;;
10452;SDS011;5274;51.992;8.518;2023-02-18T14:08:33;0.30;;;0.30;;
10452;SDS011;5274;51.992;8.518;2023-02-18T14:13:49;0.40;;;0.40;;
10452;SDS011;5274;51.992;8.518;2023-02-18T14:19:41;0.30;;;0.30;;
10452;SDS011;5274;51.992;8.518;2023-02-18T14:24:55;0.30;;;0.30;;
10452;SDS011;5274;51.992;8.518;2023-02-18T14:27:41;0.88;;;0.88;;
10452;SDS011;5274;51.992;8.518;2023-02-18T14:30:15;0.30;;;0.30;;
10452;SDS011;5274;51.992;8.518;2023-02-18T14:32:42;0.20;;;0.20;;
10452;SDS011;5274;51.992;8.518;2023-02-18T14:35:12;0.30;;;0.30;;
10452;SDS011;5274;51.992;8.518;2023-02-18T14:43:52;0.20;;;0.20;;
10452;SDS011;5274;51.992;8.518;2023-02-18T14:46:27;0.22;;;0.22;;
10452;SDS011;5274;51.992;8.518;2023-02-18T14:52:27;0.30;;;0.30;;
10452;SDS011;5274;51.992;8.518;2023-02-18T14:54:55;0.68;;;0.68;;
10452;SDS011;5274;51.992;8.518;2023-02-18T14:57:47;0.45;;;0.45;;
10452;SDS011;5274;51.992;8.518;2023-02-18T15:00:19;0.30;;;0.30;;
10452;SDS011;5274;51.992;8.518;2023-02-18T15:02:50;0.30;;;0.30;;
10452;SDS011;5274;51.992;8.518;2023-02-18T15:05:21;0.98;;;0.98;;
10452;SDS011;5274;51.992;8.518;2023-02-18T15:10:38;0.30;;;0.30;;
10452;SDS011;5274;51.992;8.518;2023-02-18T15:13:21;0.32;;;0.32;;
10452;SDS011;5274;51.992;8.518;2023-02-18T15:15:54;0.20;;;0.20;;
10452;SDS011;5274;51.992;8.518;2023-02-18T15:18:25;0.28;;;0.28;;
10452;SDS011;5274;51.992;8.518;2023-02-18T15:20:55;0.30;;;0.30;;
10452;SDS011;5274;51.992;8.518;2023-02-18T15:23:20;0.30;;;0.30;;
10452;SDS011;5274;51.992;8.518;2023-02-18T15:25:48;0.40;;;0.40;;
10452;SDS011;5274;51.992;8.518;2023-02-18T15:28:23;0.20;;;0.20;;
10452;SDS011;5274;51.992;8.518;2023-02-18T15:30:50;0.20;;;0.20;;
10452;SDS011;5274;51.992;8.518;2023-02-18T15:33:17;0.30;;;0.30;;
10452;SDS011;5274;51.992;8.518;2023-02-18T15:35:44;0.20;;;0.20;;
10452;SDS011;5274;51.992;8.518;2023-02-18T15:38:13;0.25;;;0.25;;
10452;SDS011;5274;51.992;8.518;2023-02-18T15:40:40;0.30;;;0.30;;
10452;SDS011;5274;51.992;8.518;2023-02-18T15:43:07;0.20;;;0.20;;
10452;SDS011;5274;51.992;8.518;2023-02-18T15:45:34;0.30;;;0.30;;
10452;SDS011;5274;51.992;8.518;2023-02-18T15:48:02;0.30;;;0.30;;
10452;SDS011;5274;51.992;8.518;2023-02-18T15:50:36;0.20;;;0.20;;
10452;SDS011;5274;51.992;8.518;2023-02-18T15:53:12;0.60;;;0.60;;
10452;SDS011;5274;51.992;8.518;2023-02-18T15:55:41;0.28;;;0.28;;
10452;SDS011;5274;51.992;8.518;2023-02-18T15:58:13;0.22;;;0.22;;
10452;SDS011;5274;51.992;8.518;2023-02-18T16:00:49;0.30;;;0.30;;
10452;SDS011;5274;51.992;8.518;2023-02-18T16:03:23;0.30;;;0.30;;
10452;SDS011;5274;51.992;8.518;2023-02-18T16:06:05;0.57;;;0.57;;
10452;SDS011;5274;51.992;8.518;2023-02-18T16:09:01;0.30;;;0.30;;
10452;SDS011;5274;51.992;8.518;2023-02-18T16:11:34;0.30;;;0.30;;
10452;SDS011;5274;51.992;8.518;2023-02-18T16:14:03;0.30;;;0.30;;
10452;SDS011;5274;51.992;8.518;2023-02-18T16:16:33;0.30;;;0.30;;
10452;SDS011;5274;51.992;8.518;2023-02-18T16:19:00;0.30;;;0.30;;
10452;SDS011;5274;51.992;8.518;2023-02-18T16:21:30;0.30;;;0.30;;
10452;SDS011;5274;51.992;8.518;2023-02-18T16:24:00;0.25;;;0.25;;
10452;SDS011;5274;51.992;8.518;2023-02-18T16:26:29;0.30;;;0.30;;
10452;SDS011;5274;51.992;8.518;2023-02-18T16:29:00;0.30;;;0.30;;
10452;SDS011;5274;51.992;8.518;2023-02-18T16:31:29;0.30;;;0.30;;
10452;SDS011;5274;51.992;8.518;2023-02-18T16:33:54;0.20;;;0.20;;
10452;SDS011;5274;51.992;8.518;2023-02-18T16:36:20;1.00;;;1.00;;
10452;SDS011;5274;51.992;8.518;2023-02-18T16:38:48;0.70;;;0.70;;
10452;SDS011;5274;51.992;8.518;2023-02-18T16:41:14;0.30;;;0.30;;
10452;SDS011;5274;51.992;8.518;2023-02-18T16:43:39;0.30;;;0.30;;
10452;SDS011;5274;51.992;8.518;2023-02-18T16:46:07;0.30;;;0.30;;
10452;SDS011;5274;51.992;8.518;2023-02-18T16:48:40;0.28;;;0.28;;